Time;durP1;ratioP1;P1;durP2;ratioP2;P2;SDS_P1;SDS_P2;PMS_P1;PMS_P2;Temp;Humidity;BMP_temperature;BMP_pressure;BME280_temperature;BME280_humidity;BME280_pressure;Samples;Min_cycle;Max_cycle;Signal;HPM_P1;HPM_P2
2023/09/15 00:01:05;;;;;;;39.85;37.85;;;;;;;24.72;100.00;101011.47;4990432;28;19921;-82
2023/09/15 00:03:32;;;;;;;45.53;43.28;;;;;;;24.66;100.00;101008.00;4989082;28;20050;-82
2023/09/15 00:06:04;;;;;;;42.80;40.40;;;;;;;24.89;100.00;101000.84;4991600;28;20047;-74
2023/09/15 00:08:39;;;;;;;37.75;35.85;;;;;;;24.30;100.00;101015.78;4991801;28;20129;-83
2023/09/15 00:11:16;;;;;;;46.17;43.20;;;;;;;24.36;100.00;101011.09;4991135;28;20512;-82
2023/09/15 00:13:44;;;;;;;53.78;51.08;;;;;;;24.18;100.00;101012.69;4989253;28;20061;-83
2023/09/15 00:16:11;;;;;;;43.15;40.83;;;;;;;24.43;100.00;101019.72;4988131;28;20042;-83
2023/09/15 00:18:38;;;;;;;50.47;48.08;;;;;;;24.13;100.00;101012.72;4988774;28;20500;-83
2023/09/15 00:21:09;;;;;;;44.70;42.25;;;;;;;23.95;100.00;101014.28;4992276;28;20054;-83
2023/09/15 00:23:37;;;;;;;40.35;38.38;;;;;;;23.97;100.00;101015.63;4992748;28;20086;-82
2023/09/15 00:26:07;;;;;;;50.45;48.15;;;;;;;23.96;100.00;101014.03;4983090;28;20476;-82
2023/09/15 00:28:34;;;;;;;37.88;35.78;;;;;;;24.10;100.00;101016.03;4986999;28;20053;-82
2023/09/15 00:31:00;;;;;;;46.28;44.08;;;;;;;23.92;100.00;101021.09;4983607;28;20519;-82
2023/09/15 00:33:28;;;;;;;53.38;50.78;;;;;;;24.25;100.00;101010.41;4991143;28;20042;-83
2023/09/15 00:35:54;;;;;;;47.83;45.42;;;;;;;24.04;100.00;101017.19;4993173;28;20050;-83
2023/09/15 00:38:23;;;;;;;43.97;41.55;;;;;;;23.94;100.00;101024.34;4989396;28;20062;-82
2023/09/15 00:40:50;;;;;;;43.78;41.47;;;;;;;24.11;100.00;101023.88;4980969;28;20051;-83
2023/09/15 00:43:19;;;;;;;46.60;44.30;;;;;;;24.21;100.00;101021.03;4991618;28;20469;-83
2023/09/15 00:45:46;;;;;;;54.40;51.88;;;;;;;24.35;100.00;101026.56;4992432;28;20053;-83
2023/09/15 00:48:14;;;;;;;60.63;57.60;;;;;;;24.00;100.00;101022.38;4986702;28;20062;-74
2023/09/15 00:50:43;;;;;;;65.18;62.22;;;;;;;24.04;100.00;101034.25;4990894;28;20641;-74
2023/09/15 00:53:13;;;;;;;56.78;54.17;;;;;;;24.03;100.00;101024.53;4988993;28;20046;-74
2023/09/15 00:55:43;;;;;;;50.25;47.85;;;;;;;24.15;100.00;101027.63;4981093;28;20046;-74
2023/09/15 00:58:19;;;;;;;43.53;41.42;;;;;;;24.16;100.00;101023.81;4991685;28;20058;-74
2023/09/15 01:00:46;;;;;;;41.17;38.80;;;;;;;24.06;100.00;101034.00;4981965;28;20049;-74
2023/09/15 01:03:30;;;;;;;48.35;45.10;;;;;;;23.91;100.00;101037.69;4993115;28;20054;-74
2023/09/15 01:05:57;;;;;;;46.25;44.05;;;;;;;24.19;100.00;101038.72;4986818;28;20054;-74
2023/09/15 01:08:30;;;;;;;40.80;38.70;;;;;;;24.40;100.00;101034.66;4989898;28;20087;-83
2023/09/15 01:11:01;;;;;;;67.55;63.28;;;;;;;24.10;100.00;101037.72;4989358;28;20523;-83
2023/09/15 01:13:28;;;;;;;43.20;41.10;;;;;;;23.80;100.00;101045.09;4989363;28;20077;-83
2023/09/15 01:16:02;;;;;;;45.92;43.75;;;;;;;24.25;100.00;101045.69;4983212;28;20076;-74
2023/09/15 01:18:46;;;;;;;41.90;39.80;;;;;;;24.00;100.00;101049.50;4985544;28;20042;-74
2023/09/15 01:21:43;;;;;;;42.58;40.38;;;;;;;24.25;100.00;101053.84;4991932;28;20073;-74
2023/09/15 01:24:48;;;;;;;42.67;40.58;;;;;;;24.18;100.00;101059.63;4989670;28;20053;-74
2023/09/15 01:27:42;;;;;;;46.65;43.78;;;;;;;23.91;100.00;101064.81;4968087;28;20447;-74
2023/09/15 01:30:13;;;;;;;43.78;41.60;;;;;;;23.86;100.00;101068.34;4983397;28;20046;-74
2023/09/15 01:32:41;;;;;;;41.50;39.42;;;;;;;23.73;100.00;101067.13;4985781;28;20468;-74
2023/09/15 01:35:09;;;;;;;42.58;40.60;;;;;;;23.69;100.00;101076.94;4985908;28;20101;-73
2023/09/15 01:37:36;;;;;;;45.53;43.15;;;;;;;23.63;100.00;101071.78;4989534;28;20054;-74
2023/09/15 01:40:05;;;;;;;40.95;38.83;;;;;;;23.61;100.00;101060.44;4991777;28;20539;-74
2023/09/15 01:42:32;;;;;;;38.85;36.85;;;;;;;23.61;100.00;101061.25;4992033;28;20081;-74
2023/09/15 01:44:59;;;;;;;41.53;39.35;;;;;;;23.67;100.00;101065.53;4991840;28;20047;-74
2023/09/15 01:47:28;;;;;;;44.72;42.63;;;;;;;23.67;100.00;101070.94;4987908;28;20523;-73
2023/09/15 01:49:56;;;;;;;49.00;46.13;;;;;;;23.68;100.00;101069.03;4988983;28;20108;-74
2023/09/15 01:52:23;;;;;;;44.15;41.78;;;;;;;23.70;100.00;101067.69;4990859;28;20064;-74
2023/09/15 01:54:53;;;;;;;38.97;36.97;;;;;;;23.64;100.00;101068.81;4987098;28;20054;-74
2023/09/15 01:57:21;;;;;;;45.03;42.83;;;;;;;23.28;100.00;101079.13;4985665;28;20073;-74
2023/09/15 01:59:48;;;;;;;37.47;35.47;;;;;;;23.47;100.00;101080.06;4991266;28;20133;-74
2023/09/15 02:02:15;;;;;;;49.15;46.85;;;;;;;23.43;100.00;101078.22;4987804;28;20464;-74
2023/09/15 02:04:43;;;;;;;51.85;49.55;;;;;;;23.46;100.00;101080.34;4984248;28;20065;-73
2023/09/15 02:07:10;;;;;;;45.83;43.63;;;;;;;23.24;100.00;101075.38;4985404;28;20050;-83
2023/09/15 02:09:40;;;;;;;53.33;50.60;;;;;;;23.31;100.00;101076.66;4988449;28;20054;-74
2023/09/15 02:12:07;;;;;;;37.65;35.85;;;;;;;23.30;100.00;101080.47;4984919;28;20043;-83
2023/09/15 02:14:46;;;;;;;35.40;33.80;;;;;;;23.32;100.00;101074.75;4987045;28;20413;-83
2023/09/15 02:17:15;;;;;;;47.55;45.40;;;;;;;23.37;100.00;101080.16;4974742;28;20073;-83
2023/09/15 02:19:44;;;;;;;57.33;54.33;;;;;;;23.04;100.00;101076.31;4987231;28;20560;-82
2023/09/15 02:22:11;;;;;;;43.80;41.63;;;;;;;23.20;100.00;101072.41;4984448;28;20054;-82
2023/09/15 02:24:39;;;;;;;44.08;41.78;;;;;;;23.26;100.00;101076.69;4986680;28;20050;-82
2023/09/15 02:27:05;;;;;;;49.30;46.95;;;;;;;23.22;100.00;101085.69;4988427;28;20056;-82
2023/09/15 02:29:32;;;;;;;40.72;38.63;;;;;;;23.25;100.00;101077.00;4989335;28;20451;-82
2023/09/15 02:32:13;;;;;;;33.65;31.85;;;;;;;23.38;100.00;101079.03;4985193;28;20061;-82
2023/09/15 02:35:05;;;;;;;47.50;45.20;;;;;;;23.25;100.00;101079.69;4981031;28;20507;-82
2023/09/15 02:37:40;;;;;;;47.23;45.13;;;;;;;23.40;100.00;101082.28;4985022;28;20047;-82
2023/09/15 02:40:08;;;;;;;46.80;44.60;;;;;;;23.50;100.00;101075.97;4985254;28;20050;-82
2023/09/15 02:42:36;;;;;;;51.60;49.00;;;;;;;23.45;100.00;101082.25;4984463;28;20042;-83
2023/09/15 02:45:03;;;;;;;40.25;38.15;;;;;;;23.50;100.00;101084.91;4987145;28;20058;-82
2023/09/15 02:47:30;;;;;;;44.88;42.58;;;;;;;23.28;100.00;101088.06;4976221;28;20050;-82
2023/09/15 02:49:59;;;;;;;36.80;34.80;;;;;;;23.26;100.00;101087.53;4990386;28;20058;-82
2023/09/15 02:52:27;;;;;;;28.80;26.75;;;;;;;23.35;100.00;101089.66;4986764;28;20046;-82
2023/09/15 02:54:54;;;;;;;28.05;26.35;;;;;;;23.43;100.00;101087.16;4984685;28;20058;-82
2023/09/15 02:57:21;;;;;;;32.10;30.50;;;;;;;23.19;100.00;101087.03;4990285;28;20062;-82
2023/09/15 02:59:47;;;;;;;36.50;34.80;;;;;;;23.18;100.00;101096.28;4986665;28;20432;-81
2023/09/15 03:02:15;;;;;;;34.38;32.42;;;;;;;23.14;100.00;101097.09;4983554;28;20053;-82
2023/09/15 03:04:45;;;;;;;34.30;32.50;;;;;;;23.30;100.00;101088.59;4990702;28;20057;-82
2023/09/15 03:07:15;;;;;;;30.13;28.42;;;;;;;23.20;100.00;101101.41;4987290;28;20428;-82
2023/09/15 03:09:44;;;;;;;34.10;32.28;;;;;;;23.19;100.00;101100.59;4984536;28;20489;-82
2023/09/15 03:12:11;;;;;;;25.98;24.08;;;;;;;23.12;100.00;101108.25;4987241;28;20132;-73
2023/09/15 03:14:39;;;;;;;30.27;28.70;;;;;;;23.05;100.00;101102.31;4987144;28;20544;-74
2023/09/15 03:17:07;;;;;;;31.48;29.98;;;;;;;22.98;100.00;101115.34;4989418;28;20042;-74
2023/09/15 03:19:35;;;;;;;34.25;32.65;;;;;;;22.61;100.00;101105.75;4980696;28;20526;-74
2023/09/15 03:22:02;;;;;;;30.50;28.90;;;;;;;22.91;100.00;101112.13;4987195;28;20065;-74
2023/09/15 03:24:29;;;;;;;31.75;29.98;;;;;;;22.32;100.00;101119.09;4986206;28;20138;-73
2023/09/15 03:26:57;;;;;;;57.83;54.30;;;;;;;22.68;100.00;101125.19;4989304;28;20449;-74
2023/09/15 03:29:37;;;;;;;41.75;39.65;;;;;;;22.73;100.00;101127.91;4977448;28;20479;-82
2023/09/15 03:32:04;;;;;;;66.75;63.65;;;;;;;22.43;100.00;101128.81;4983367;28;20081;-74
2023/09/15 03:34:31;;;;;;;63.35;60.10;;;;;;;22.72;100.00;101133.56;4985025;28;20050;-74
2023/09/15 03:36:58;;;;;;;30.27;28.63;;;;;;;22.43;100.00;101128.81;4990972;28;20047;-74
2023/09/15 03:39:24;;;;;;;26.92;25.10;;;;;;;22.41;100.00;101133.69;4990692;28;20058;-74
2023/09/15 03:41:51;;;;;;;30.95;29.15;;;;;;;22.53;100.00;101139.59;4992194;28;20523;-74
2023/09/15 03:44:22;;;;;;;32.53;30.63;;;;;;;22.28;100.00;101139.69;4984992;28;20475;-74
2023/09/15 03:46:49;;;;;;;29.73;28.13;;;;;;;22.24;100.00;101146.72;4989479;28;20789;-74
2023/09/15 03:49:16;;;;;;;34.85;32.95;;;;;;;22.27;100.00;101148.88;4986200;28;20050;-74
2023/09/15 03:51:44;;;;;;;39.70;37.80;;;;;;;22.57;100.00;101135.28;4989516;28;20054;-74
2023/09/15 03:54:11;;;;;;;39.83;37.92;;;;;;;22.34;100.00;101135.88;4987167;28;20054;-83
2023/09/15 03:56:38;;;;;;;33.50;31.80;;;;;;;22.54;100.00;101154.78;4989252;28;20045;-83
2023/09/15 03:59:05;;;;;;;32.40;30.35;;;;;;;22.49;100.00;101156.69;4990218;28;20056;-74
2023/09/15 04:01:33;;;;;;;29.73;27.98;;;;;;;22.64;100.00;101162.06;4983386;28;20054;-74
2023/09/15 04:04:02;;;;;;;50.08;47.17;;;;;;;22.71;100.00;101167.97;4990193;28;20042;-74
2023/09/15 04:06:30;;;;;;;32.95;31.15;;;;;;;22.67;100.00;101166.09;4984364;28;20046;-74
2023/09/15 04:09:09;;;;;;;36.00;33.92;;;;;;;22.60;100.00;101180.75;4991848;28;20050;-74
2023/09/15 04:11:46;;;;;;;40.95;38.58;;;;;;;22.67;100.00;101172.31;4990851;28;20126;-74
2023/09/15 04:14:15;;;;;;;31.27;29.40;;;;;;;22.61;100.00;101185.06;4997326;28;20047;-74
2023/09/15 04:16:44;;;;;;;31.80;30.00;;;;;;;22.41;100.00;101191.31;4990400;28;20046;-74
2023/09/15 04:19:11;;;;;;;31.67;28.52;;;;;;;22.12;100.00;101191.06;4991207;28;20050;-75
2023/09/15 04:21:38;;;;;;;23.50;21.70;;;;;;;22.13;100.00;101189.19;4991247;28;20053;-74
2023/09/15 04:24:15;;;;;;;24.58;22.77;;;;;;;21.68;100.00;101197.00;4989986;28;20054;-82
2023/09/15 04:26:42;;;;;;;22.38;20.58;;;;;;;21.52;100.00;101195.38;4989912;28;20522;-82
2023/09/15 04:29:09;;;;;;;25.40;23.70;;;;;;;21.49;100.00;101212.09;4999154;28;20108;-82
2023/09/15 04:31:37;;;;;;;27.52;25.73;;;;;;;21.25;100.00;101214.44;4986325;28;20039;-82
2023/09/15 04:34:07;;;;;;;26.40;24.50;;;;;;;20.78;100.00;101218.00;4988769;28;20077;-82
2023/09/15 04:36:35;;;;;;;31.30;29.08;;;;;;;20.88;100.00;101219.94;4988162;28;20435;-82
2023/09/15 04:39:02;;;;;;;29.83;27.48;;;;;;;21.02;100.00;101224.59;4990464;28;20046;-82
2023/09/15 04:41:29;;;;;;;30.70;28.60;;;;;;;21.17;100.00;101225.75;4989742;28;20143;-83
2023/09/15 04:43:57;;;;;;;29.30;27.33;;;;;;;21.15;100.00;101223.31;4988503;28;20053;-82
2023/09/15 04:46:28;;;;;;;28.50;26.60;;;;;;;21.11;100.00;101229.50;4985768;28;20057;-74
2023/09/15 04:48:55;;;;;;;29.80;27.88;;;;;;;21.15;100.00;101227.88;4994591;28;20046;-74
2023/09/15 04:51:24;;;;;;;31.05;28.95;;;;;;;21.00;100.00;101234.06;4997096;28;20074;-74
2023/09/15 04:53:51;;;;;;;30.83;28.83;;;;;;;21.29;100.00;101231.72;4989215;28;20065;-74
2023/09/15 04:56:18;;;;;;;32.08;29.98;;;;;;;20.74;100.00;101233.09;4992058;28;20080;-75
2023/09/15 04:58:46;;;;;;;33.90;31.52;;;;;;;21.16;100.00;101224.13;4989599;28;20734;-74
2023/09/15 05:01:16;;;;;;;32.25;29.95;;;;;;;21.50;100.00;101233.44;4992625;28;20054;-75
2023/09/15 05:03:44;;;;;;;31.60;29.40;;;;;;;21.56;100.00;101231.56;4989245;28;20056;-74
2023/09/15 05:06:11;;;;;;;35.42;32.83;;;;;;;21.81;100.00;101233.50;4992371;28;20101;-74
2023/09/15 05:08:39;;;;;;;35.30;33.00;;;;;;;21.82;100.00;101231.63;4987242;28;20043;-74
2023/09/15 05:11:07;;;;;;;36.58;33.88;;;;;;;21.94;100.00;101237.59;4983525;28;20046;-74
2023/09/15 05:13:34;;;;;;;33.33;31.02;;;;;;;21.95;100.00;101236.50;4988929;28;20043;-74
2023/09/15 05:16:04;;;;;;;36.08;33.38;;;;;;;22.04;100.00;101239.50;4989173;28;20081;-75
2023/09/15 05:18:31;;;;;;;32.35;29.70;;;;;;;21.68;100.00;101250.25;4988928;28;20440;-82
2023/09/15 05:21:04;;;;;;;33.53;31.20;;;;;;;21.93;100.00;101258.38;4988217;28;20054;-82
2023/09/15 05:23:31;;;;;;;37.35;34.65;;;;;;;22.13;100.00;101252.19;4981458;28;20051;-82
2023/09/15 05:25:59;;;;;;;36.03;33.38;;;;;;;22.45;100.00;101253.84;4990923;28;20054;-82
2023/09/15 05:28:26;;;;;;;34.03;31.52;;;;;;;22.23;100.00;101264.13;4989281;28;20439;-82
2023/09/15 05:30:59;;;;;;;36.25;33.67;;;;;;;22.37;100.00;101263.31;4988850;28;20042;-82
2023/09/15 05:33:26;;;;;;;32.15;29.80;;;;;;;22.33;100.00;101264.94;4986513;28;20038;-82
2023/09/15 05:35:55;;;;;;;34.83;32.30;;;;;;;22.57;100.00;101256.25;4983291;28;20042;-83
2023/09/15 05:38:21;;;;;;;37.03;34.53;;;;;;;22.40;100.00;101260.06;4986978;28;20046;-82
2023/09/15 05:40:53;;;;;;;36.92;34.30;;;;;;;22.58;100.00;101271.44;4986900;28;20061;-83
2023/09/15 05:43:22;;;;;;;35.40;33.00;;;;;;;22.49;100.00;101263.03;4989798;28;20050;-74
2023/09/15 05:45:56;;;;;;;46.35;34.78;;;;;;;22.55;100.00;101267.38;4980996;28;20428;-74
2023/09/15 05:48:23;;;;;;;34.75;32.15;;;;;;;22.31;100.00;101269.00;4984169;28;20046;-74
2023/09/15 05:50:50;;;;;;;30.55;28.33;;;;;;;22.64;100.00;101260.31;4986658;28;20087;-74
2023/09/15 05:53:17;;;;;;;29.58;27.67;;;;;;;22.62;100.00;101253.53;4988299;28;20051;-74
2023/09/15 05:55:44;;;;;;;29.85;27.95;;;;;;;22.91;100.00;101259.16;4979468;28;20073;-83
2023/09/15 05:58:11;;;;;;;28.65;26.40;;;;;;;22.88;100.00;101261.63;4980190;28;20440;-82
2023/09/15 06:00:43;;;;;;;25.23;23.42;;;;;;;22.84;100.00;101258.63;4978791;28;20050;-74
2023/09/15 06:03:10;;;;;;;28.40;26.40;;;;;;;23.14;100.00;101265.06;4985955;28;20039;-74
2023/09/15 06:05:37;;;;;;;25.30;23.52;;;;;;;23.07;100.00;101262.66;4979980;28;20052;-75
2023/09/15 06:08:06;;;;;;;26.02;24.08;;;;;;;22.88;100.00;101264.34;4982346;28;20057;-83
2023/09/15 06:10:40;;;;;;;24.55;22.88;;;;;;;23.26;100.00;101266.38;4980591;28;20500;-82
2023/09/15 06:13:07;;;;;;;25.92;24.02;;;;;;;22.95;100.00;101264.88;4980098;28;20047;-82
2023/09/15 06:15:36;;;;;;;25.73;23.92;;;;;;;22.66;100.00;101267.34;4979944;28;20055;-83
2023/09/15 06:18:07;;;;;;;26.55;24.65;;;;;;;22.51;100.00;101277.13;4990526;28;20046;-83
2023/09/15 06:20:34;;;;;;;27.83;25.83;;;;;;;22.52;100.00;101278.72;4985305;28;20726;-83
2023/09/15 06:23:00;;;;;;;29.13;27.02;;;;;;;22.49;100.00;101276.56;4983171;28;20113;-83
2023/09/15 06:25:32;;;;;;;26.98;24.98;;;;;;;22.64;100.00;101281.16;4991331;28;20050;-74
2023/09/15 06:27:59;;;;;;;29.73;27.50;;;;;;;22.85;100.00;101282.75;4991617;28;20061;-74
2023/09/15 06:30:29;;;;;;;37.58;35.08;;;;;;;22.84;100.00;101278.41;4987628;28;20050;-74
2023/09/15 06:32:56;;;;;;;41.28;38.67;;;;;;;23.07;100.00;101293.28;4973918;28;20063;-74
2023/09/15 06:35:37;;;;;;;64.53;60.83;;;;;;;23.05;100.00;101276.47;4990229;28;20047;-74
2023/09/15 06:38:06;;;;;;;43.65;41.25;;;;;;;23.29;100.00;101284.78;4983707;28;20050;-75
2023/09/15 06:40:34;;;;;;;38.40;36.30;;;;;;;23.50;100.00;101279.28;4984905;28;20050;-84
2023/09/15 06:43:04;;;;;;;42.42;40.13;;;;;;;23.31;100.00;101276.38;4979408;28;20059;-85
2023/09/15 06:45:31;;;;;;;38.75;36.72;;;;;;;23.43;100.00;101267.94;4978349;28;20452;-84
2023/09/15 06:47:59;;;;;;;37.55;35.35;;;;;;;23.71;100.00;101275.38;4976879;28;20047;-84
2023/09/15 06:50:26;;;;;;;39.38;37.38;;;;;;;23.44;100.00;101269.56;4979908;28;20054;-83
2023/09/15 06:52:55;;;;;;;38.45;36.45;;;;;;;24.04;100.00;101267.59;4979873;28;20050;-83
2023/09/15 06:55:22;;;;;;;35.08;32.97;;;;;;;24.08;100.00;101275.97;4980949;28;20524;-83
2023/09/15 06:57:50;;;;;;;36.88;35.03;;;;;;;23.89;100.00;101283.97;4977737;28;20043;-74
2023/09/15 07:00:17;;;;;;;35.65;33.75;;;;;;;24.11;100.00;101284.34;4982127;28;20385;-74
2023/09/15 07:02:44;;;;;;;31.55;29.85;;;;;;;24.52;100.00;101267.75;4984019;28;20669;-74
2023/09/15 07:05:11;;;;;;;31.40;29.80;;;;;;;24.28;100.00;101285.84;4981181;28;20499;-75
2023/09/15 07:07:38;;;;;;;21.70;20.30;;;;;;;24.17;100.00;101277.78;4983490;28;20405;-85
2023/09/15 07:10:08;;;;;;;23.00;21.50;;;;;;;24.15;100.00;101287.31;4983159;28;20054;-84
2023/09/15 07:12:35;;;;;;;25.00;23.50;;;;;;;24.53;100.00;101269.34;4980181;28;20057;-84
2023/09/15 07:15:04;;;;;;;41.22;39.13;;;;;;;24.25;100.00;101281.00;4983521;28;20050;-83
2023/09/15 07:17:31;;;;;;;39.70;37.70;;;;;;;24.28;100.00;101288.56;4977200;28;20070;-84
2023/09/15 07:19:58;;;;;;;40.10;38.10;;;;;;;24.36;100.00;101275.19;4980977;28;20050;-83
2023/09/15 07:22:26;;;;;;;43.25;40.95;;;;;;;24.51;100.00;101278.88;4976801;28;20055;-84
2023/09/15 07:24:53;;;;;;;40.50;38.40;;;;;;;24.37;100.00;101293.09;4981987;28;20570;-84
2023/09/15 07:27:23;;;;;;;39.60;37.50;;;;;;;24.63;100.00;101280.13;4983805;28;20050;-85
2023/09/15 07:29:50;;;;;;;39.63;37.53;;;;;;;24.47;100.00;101284.06;4983105;28;20046;-85
2023/09/15 07:32:17;;;;;;;34.20;32.40;;;;;;;24.68;100.00;101288.22;4977415;28;20838;-84
2023/09/15 07:34:44;;;;;;;39.35;37.38;;;;;;;25.56;100.00;101285.31;4982080;28;20046;-74
2023/09/15 07:37:11;;;;;;;24.35;22.85;;;;;;;24.38;100.00;101299.34;4982351;28;20054;-85
2023/09/15 07:39:38;;;;;;;23.77;22.27;;;;;;;24.77;100.00;101299.25;4982645;28;20047;-85
2023/09/15 07:42:08;;;;;;;24.90;23.40;;;;;;;25.30;100.00;101288.38;4978553;28;20056;-75
2023/09/15 07:44:37;;;;;;;42.58;40.47;;;;;;;24.96;100.00;101291.19;4975125;28;20054;-74
2023/09/15 07:47:09;;;;;;;37.50;35.50;;;;;;;24.89;100.00;101296.16;4985995;28;20050;-74
2023/09/15 07:49:36;;;;;;;35.10;33.20;;;;;;;25.24;100.00;101300.41;4985784;28;20784;-74
2023/09/15 07:52:04;;;;;;;37.17;34.97;;;;;;;25.13;100.00;101297.00;4985596;28;20046;-74
2023/09/15 07:54:33;;;;;;;36.47;34.58;;;;;;;25.55;100.00;101297.31;4981960;28;20051;-75
2023/09/15 07:57:00;;;;;;;32.15;30.42;;;;;;;25.68;100.00;101293.06;4984727;28;20100;-74
2023/09/15 07:59:27;;;;;;;31.55;29.75;;;;;;;24.67;100.00;101292.03;4984669;28;20050;-75
2023/09/15 08:01:56;;;;;;;31.95;30.15;;;;;;;24.76;100.00;101294.13;4984241;28;20449;-74
2023/09/15 08:04:22;;;;;;;31.67;29.90;;;;;;;24.80;100.00;101297.88;4979932;28;20543;-74
2023/09/15 08:06:50;;;;;;;22.98;21.58;;;;;;;24.43;100.00;101288.47;4984311;28;20057;-75
2023/09/15 08:09:17;;;;;;;23.98;22.38;;;;;;;24.79;100.00;101294.38;4984528;28;20073;-74
2023/09/15 08:11:44;;;;;;;35.35;33.05;;;;;;;25.34;100.00;101289.41;4986902;28;20081;-75
2023/09/15 08:14:11;;;;;;;34.50;32.60;;;;;;;25.34;100.00;101286.69;4987402;28;20132;-74
2023/09/15 08:16:38;;;;;;;36.50;34.70;;;;;;;25.15;100.00;101293.22;4987468;28;20443;-75
2023/09/15 08:19:06;;;;;;;37.38;35.38;;;;;;;25.19;100.00;101292.31;4980184;28;20055;-74
2023/09/15 08:21:35;;;;;;;41.08;37.13;;;;;;;25.36;100.00;101283.69;4979681;28;20433;-74
2023/09/15 08:24:02;;;;;;;38.58;36.38;;;;;;;25.71;100.00;101281.56;4986869;28;20054;-75
2023/09/15 08:26:29;;;;;;;41.03;38.92;;;;;;;25.79;100.00;101286.38;4984045;28;20050;-74
2023/09/15 08:28:56;;;;;;;34.75;32.75;;;;;;;25.39;100.00;101280.41;4987868;28;20141;-74
2023/09/15 08:31:25;;;;;;;36.97;34.97;;;;;;;25.52;100.00;101279.66;4986048;28;20046;-74
2023/09/15 08:33:53;;;;;;;34.92;32.97;;;;;;;25.93;100.00;101283.72;4982632;28;20052;-75
2023/09/15 08:36:21;;;;;;;23.98;22.58;;;;;;;25.83;100.00;101284.69;4986303;28;20096;-75
2023/09/15 08:38:48;;;;;;;23.92;22.52;;;;;;;26.07;100.00;101279.16;4987601;28;20436;-86
2023/09/15 08:41:22;;;;;;;26.50;24.40;;;;;;;26.07;100.00;101273.72;4985820;28;20050;-75
2023/09/15 08:43:49;;;;;;;40.03;37.83;;;;;;;25.36;100.00;101273.63;4980781;28;20046;-74
2023/09/15 08:46:17;;;;;;;36.08;34.28;;;;;;;25.56;100.00;101277.16;4989503;28;20050;-74
2023/09/15 08:48:49;;;;;;;38.10;36.22;;;;;;;25.96;100.00;101274.97;4986695;28;20043;-75
2023/09/15 08:51:18;;;;;;;40.63;38.53;;;;;;;26.28;100.00;101275.00;4987755;28;20065;-74
2023/09/15 08:53:47;;;;;;;43.20;41.10;;;;;;;26.79;100.00;101267.06;4989897;28;20050;-75
2023/09/15 08:56:15;;;;;;;41.47;39.38;;;;;;;26.72;100.00;101268.25;4986659;28;20050;-86
2023/09/15 08:58:42;;;;;;;41.47;39.28;;;;;;;26.13;100.00;101266.28;4985987;28;20050;-74
2023/09/15 09:01:10;;;;;;;39.53;37.42;;;;;;;27.02;100.00;101257.03;4980378;28;20054;-74
2023/09/15 09:03:39;;;;;;;42.80;40.60;;;;;;;27.26;100.00;101248.69;4986279;28;20471;-75
2023/09/15 09:06:10;;;;;;;32.88;30.98;;;;;;;27.11;100.00;101258.78;4978749;28;20058;-75
2023/09/15 09:08:41;;;;;;;51.30;24.25;;;;;;;27.33;100.00;101255.34;4986942;28;20042;-74
2023/09/15 09:11:10;;;;;;;25.77;24.08;;;;;;;27.47;100.00;101259.94;4979601;28;20516;-75
2023/09/15 09:13:37;;;;;;;39.40;37.13;;;;;;;27.49;100.00;101255.00;4983696;28;20054;-74
2023/09/15 09:16:05;;;;;;;46.47;43.88;;;;;;;26.75;100.00;101255.13;4982809;28;20055;-85
2023/09/15 09:18:35;;;;;;;43.08;40.88;;;;;;;27.07;100.00;101254.22;4988496;28;20081;-75
2023/09/15 09:21:04;;;;;;;42.25;40.05;;;;;;;27.73;100.00;101243.81;4980099;28;20682;-85
2023/09/15 09:23:31;;;;;;;42.15;39.85;;;;;;;27.37;100.00;101256.34;4983987;28;20050;-84
2023/09/15 09:25:59;;;;;;;42.58;40.38;;;;;;;27.73;100.00;101244.63;4990016;28;20046;-85
2023/09/15 09:28:27;;;;;;;47.35;44.85;;;;;;;27.71;100.00;101251.50;4985616;28;20109;-85
2023/09/15 09:30:55;;;;;;;24.23;22.73;;;;;;;27.70;100.00;101247.97;4988176;28;21042;-84
2023/09/15 09:33:37;;;;;;;25.17;23.67;;;;;;;28.03;100.00;101245.84;4980357;28;20520;-86
2023/09/15 09:36:14;;;;;;;24.90;23.30;;;;;;;27.89;100.00;101252.47;4981772;28;20054;-85
2023/09/15 09:38:42;;;;;;;22.98;21.58;;;;;;;27.71;100.00;101249.56;4991509;28;20054;-86
2023/09/15 09:41:11;;;;;;;24.85;22.98;;;;;;;28.85;100.00;101240.97;4991753;28;20117;-84
2023/09/15 09:43:48;;;;;;;24.20;22.45;;;;;;;28.63;100.00;101228.19;4987798;28;20797;-84
2023/09/15 09:46:17;;;;;;;22.65;21.15;;;;;;;29.38;100.00;101226.31;4987400;28;21298;-86
2023/09/15 09:48:44;;;;;;;22.45;21.05;;;;;;;29.40;100.00;101231.44;4988866;28;20510;-84
2023/09/15 09:51:13;;;;;;;23.88;22.42;;;;;;;29.31;100.00;101230.63;4984294;28;20621;-85
2023/09/15 09:53:41;;;;;;;24.63;23.13;;;;;;;29.00;100.00;101229.59;4983148;28;20117;-84
2023/09/15 09:56:08;;;;;;;25.38;23.77;;;;;;;29.11;100.00;101229.31;4980760;28;20058;-84
2023/09/15 09:58:38;;;;;;;23.60;21.77;;;;;;;29.52;100.00;101219.88;4986157;28;20046;-86
2023/09/15 10:01:11;;;;;;;23.45;22.00;;;;;;;30.11;100.00;101220.97;4983042;28;20054;-84
2023/09/15 10:03:38;;;;;;;26.10;24.50;;;;;;;30.42;100.00;101221.88;4986763;28;20061;-85
2023/09/15 10:06:06;;;;;;;27.60;25.70;;;;;;;30.53;100.00;101229.41;4980699;28;20051;-85
2023/09/15 10:08:33;;;;;;;23.92;22.52;;;;;;;30.79;100.00;101210.09;4985035;28;20046;-75
2023/09/15 10:11:00;;;;;;;23.35;22.05;;;;;;;30.02;100.00;101230.34;4979658;28;20141;-75
2023/09/15 10:13:29;;;;;;;27.92;26.35;;;;;;;29.00;100.00;101224.13;4983069;28;20046;-75
2023/09/15 10:15:57;;;;;;;25.98;24.48;;;;;;;30.06;100.00;101221.13;4987525;28;20046;-75
2023/09/15 10:18:27;;;;;;;26.10;24.50;;;;;;;31.63;100.00;101217.59;4985686;28;20047;-75
2023/09/15 10:20:55;;;;;;;26.50;24.95;;;;;;;31.98;100.00;101212.59;4985880;28;20078;-75
2023/09/15 10:23:23;;;;;;;24.55;22.90;;;;;;;32.54;100.00;101206.66;4985212;28;20042;-75
2023/09/15 10:25:52;;;;;;;24.33;22.83;;;;;;;31.94;100.00;101204.22;4982565;28;20046;-75
2023/09/15 10:28:22;;;;;;;25.65;24.15;;;;;;;32.15;100.00;101195.13;4985040;28;20049;-75
2023/09/15 10:30:54;;;;;;;23.20;21.80;;;;;;;32.03;100.00;101206.09;4981955;28;20516;-75
2023/09/15 10:33:23;;;;;;;26.55;24.98;;;;;;;31.32;100.00;101204.25;4975624;28;20046;-74
2023/09/15 10:35:51;;;;;;;23.13;21.83;;;;;;;30.38;100.00;101193.50;4981873;28;20050;-75
2023/09/15 10:38:28;;;;;;;23.02;21.67;;;;;;;30.76;100.00;101202.50;4985722;28;20074;-74
2023/09/15 10:40:56;;;;;;;22.10;20.70;;;;;;;30.80;100.00;101189.78;4983025;28;20113;-75
2023/09/15 10:43:23;;;;;;;22.90;21.50;;;;;;;31.37;100.00;101188.44;4985745;28;20097;-75
2023/09/15 10:45:57;;;;;;;21.42;20.08;;;;;;;30.85;100.00;101197.00;4986479;28;20424;-75
2023/09/15 10:48:24;;;;;;;23.85;22.45;;;;;;;31.02;100.00;101188.69;4981297;28;20046;-75
2023/09/15 10:50:52;;;;;;;25.90;24.40;;;;;;;30.57;100.00;101177.47;4981694;28;20046;-75
2023/09/15 10:53:21;;;;;;;24.17;22.67;;;;;;;31.06;100.00;101180.59;4977930;28;20061;-75
2023/09/15 10:55:48;;;;;;;25.65;23.77;;;;;;;32.13;100.00;101183.66;4977993;28;20504;-75
2023/09/15 10:58:15;;;;;;;25.23;23.42;;;;;;;30.46;100.00;101187.19;4979876;28;20439;-75
2023/09/15 11:00:42;;;;;;;26.13;24.52;;;;;;;30.07;100.00;101180.84;4978208;28;20491;-74
2023/09/15 11:03:10;;;;;;;26.33;24.52;;;;;;;28.99;100.00;101183.44;4986735;28;20050;-75
2023/09/15 11:05:37;;;;;;;24.83;23.23;;;;;;;31.35;100.00;101173.44;4984647;28;20046;-85
2023/09/15 11:08:07;;;;;;;24.52;22.83;;;;;;;30.95;100.00;101173.88;4985366;28;20046;-86
2023/09/15 11:10:34;;;;;;;39.47;37.08;;;;;;;31.48;100.00;101177.84;4980210;28;20483;-85